Main page
METAR-TAF:

METAR-TAF

Airports :

Land's End Airport

Land's End, England

latitude: 50-06-10N, longitude: 005-40-14W, elevation: 122 m

Current weather observation

The report was made 26 minutes ago, at 13:50 UTC
Wind 9 kt from the West
Temperature 12°C
Humidity 76%
Pressure 1021 hPa
Visibility 10 km or more
Few clouds at a height of 2500 ft

METAR: EGHC 061350Z 27009KT 9999 FEW025 12/08 Q1021

Time: 15:16 (14:16 UTC)

Forecast

The report was made 3 hours and 15 minutes ago, at 11:01 UTC
Forecast valid from 06 at 12 UTC to 06 at 16 UTC
Wind 9 kt from the West/Southwest
Visibility 10 km or more
Few clouds at a height of 3000 ft

TAF: EGHC 061101Z 0612/0616 24009KT 9999 FEW030

Weather observations and forecasts of more than 4000 airports (METAR and TAF reports).

The available stations are represented by yellow and red dots on the map.

Hover mouse over dot to see the name of the station.

Then click to see weather observations and forecasts.

To change the map : click on the green buttons with a black cross to zoom in, on the green button with a dash to zoom out, or on the green arrows for adjacent maps.


METAR-TAF: